sensor_id;sensor_type;location;lat;lon;timestamp;P1;durP1;ratioP1;P2;durP2;ratioP2
1567;SDS011;777;47.156;8.326;2022-09-17T00:00:20;2.83;;;1.40;;
1567;SDS011;777;47.156;8.326;2022-09-17T00:02:50;4.90;;;2.40;;
1567;SDS011;777;47.156;8.326;2022-09-17T00:05:20;3.55;;;1.83;;
1567;SDS011;777;47.156;8.326;2022-09-17T00:07:49;3.40;;;1.52;;
1567;SDS011;777;47.156;8.326;2022-09-17T00:10:17;4.53;;;1.60;;
1567;SDS011;777;47.156;8.326;2022-09-17T00:12:45;3.30;;;1.42;;
1567;SDS011;777;47.156;8.326;2022-09-17T00:15:13;3.20;;;1.52;;
1567;SDS011;777;47.156;8.326;2022-09-17T00:17:40;2.55;;;1.67;;
1567;SDS011;777;47.156;8.326;2022-09-17T00:20:09;3.25;;;1.80;;
1567;SDS011;777;47.156;8.326;2022-09-17T00:22:37;3.92;;;1.85;;
1567;SDS011;777;47.156;8.326;2022-09-17T00:25:05;5.10;;;2.17;;
1567;SDS011;777;47.156;8.326;2022-09-17T00:27:33;3.50;;;1.60;;
1567;SDS011;777;47.156;8.326;2022-09-17T00:30:00;4.85;;;1.88;;
1567;SDS011;777;47.156;8.326;2022-09-17T00:32:27;3.13;;;1.80;;
1567;SDS011;777;47.156;8.326;2022-09-17T00:34:55;5.47;;;1.70;;
1567;SDS011;777;47.156;8.326;2022-09-17T00:37:23;5.60;;;1.80;;
1567;SDS011;777;47.156;8.326;2022-09-17T00:39:50;2.33;;;1.73;;
1567;SDS011;777;47.156;8.326;2022-09-17T00:42:17;4.38;;;1.50;;
1567;SDS011;777;47.156;8.326;2022-09-17T00:44:46;3.05;;;1.85;;
1567;SDS011;777;47.156;8.326;2022-09-17T00:47:17;3.35;;;1.70;;
1567;SDS011;777;47.156;8.326;2022-09-17T00:49:50;5.75;;;2.47;;
1567;SDS011;777;47.156;8.326;2022-09-17T00:52:23;2.45;;;1.70;;
1567;SDS011;777;47.156;8.326;2022-09-17T00:54:55;3.00;;;2.03;;
1567;SDS011;777;47.156;8.326;2022-09-17T00:57:27;4.47;;;2.40;;
1567;SDS011;777;47.156;8.326;2022-09-17T00:59:55;5.13;;;2.20;;
1567;SDS011;777;47.156;8.326;2022-09-17T01:02:22;5.50;;;2.22;;
1567;SDS011;777;47.156;8.326;2022-09-17T01:04:51;5.05;;;2.33;;
1567;SDS011;777;47.156;8.326;2022-09-17T01:07:22;7.13;;;2.28;;
1567;SDS011;777;47.156;8.326;2022-09-17T01:10:02;5.38;;;2.10;;
1567;SDS011;777;47.156;8.326;2022-09-17T01:12:42;5.07;;;2.47;;
1567;SDS011;777;47.156;8.326;2022-09-17T01:15:21;3.25;;;2.05;;
1567;SDS011;777;47.156;8.326;2022-09-17T01:18:06;5.07;;;2.38;;
1567;SDS011;777;47.156;8.326;2022-09-17T01:33:38;4.65;;;2.28;;
1567;SDS011;777;47.156;8.326;2022-09-17T01:36:12;6.07;;;2.55;;
1567;SDS011;777;47.156;8.326;2022-09-17T01:39:07;5.05;;;2.58;;
1567;SDS011;777;47.156;8.326;2022-09-17T01:41:45;5.43;;;2.65;;
1567;SDS011;777;47.156;8.326;2022-09-17T01:44:18;3.85;;;2.50;;
1567;SDS011;777;47.156;8.326;2022-09-17T01:46:50;3.55;;;2.60;;
1567;SDS011;777;47.156;8.326;2022-09-17T01:49:20;4.18;;;2.60;;
1567;SDS011;777;47.156;8.326;2022-09-17T01:51:50;4.35;;;2.35;;
1567;SDS011;777;47.156;8.326;2022-09-17T01:54:21;4.25;;;2.38;;
1567;SDS011;777;47.156;8.326;2022-09-17T01:57:11;2.97;;;2.20;;
1567;SDS011;777;47.156;8.326;2022-09-17T01:59:43;4.68;;;2.60;;
1567;SDS011;777;47.156;8.326;2022-09-17T02:02:15;4.35;;;2.45;;
1567;SDS011;777;47.156;8.326;2022-09-17T02:04:47;10.35;;;2.72;;
1567;SDS011;777;47.156;8.326;2022-09-17T02:07:21;5.65;;;2.78;;
1567;SDS011;777;47.156;8.326;2022-09-17T02:09:51;7.95;;;2.53;;
1567;SDS011;777;47.156;8.326;2022-09-17T02:12:27;5.43;;;2.45;;
1567;SDS011;777;47.156;8.326;2022-09-17T02:14:59;4.38;;;2.40;;
1567;SDS011;777;47.156;8.326;2022-09-17T02:17:31;5.43;;;2.38;;
1567;SDS011;777;47.156;8.326;2022-09-17T02:20:02;4.45;;;1.80;;
1567;SDS011;777;47.156;8.326;2022-09-17T02:22:32;3.92;;;1.90;;
1567;SDS011;777;47.156;8.326;2022-09-17T02:25:06;4.07;;;1.65;;
1567;SDS011;777;47.156;8.326;2022-09-17T02:27:41;6.10;;;1.67;;
1567;SDS011;777;47.156;8.326;2022-09-17T02:30:14;3.42;;;1.70;;
1567;SDS011;777;47.156;8.326;2022-09-17T02:32:43;3.05;;;1.55;;
1567;SDS011;777;47.156;8.326;2022-09-17T02:35:10;2.78;;;1.67;;
1567;SDS011;777;47.156;8.326;2022-09-17T02:37:39;4.35;;;1.88;;
1567;SDS011;777;47.156;8.326;2022-09-17T02:40:07;2.50;;;1.67;;
1567;SDS011;777;47.156;8.326;2022-09-17T02:42:39;3.35;;;1.55;;
1567;SDS011;777;47.156;8.326;2022-09-17T02:45:18;5.50;;;1.80;;
1567;SDS011;777;47.156;8.326;2022-09-17T02:48:08;3.50;;;1.73;;
1567;SDS011;777;47.156;8.326;2022-09-17T02:51:03;2.63;;;1.50;;
1567;SDS011;777;47.156;8.326;2022-09-17T02:53:38;4.07;;;1.50;;
1567;SDS011;777;47.156;8.326;2022-09-17T02:56:16;4.20;;;1.80;;
1567;SDS011;777;47.156;8.326;2022-09-17T02:58:49;3.53;;;1.42;;
1567;SDS011;777;47.156;8.326;2022-09-17T03:01:22;5.72;;;1.58;;
1567;SDS011;777;47.156;8.326;2022-09-17T03:04:00;3.92;;;1.60;;
1567;SDS011;777;47.156;8.326;2022-09-17T03:06:29;3.83;;;1.50;;
1567;SDS011;777;47.156;8.326;2022-09-17T03:08:56;5.70;;;1.80;;
1567;SDS011;777;47.156;8.326;2022-09-17T03:11:24;2.40;;;1.35;;
1567;SDS011;777;47.156;8.326;2022-09-17T03:13:51;2.47;;;1.30;;
1567;SDS011;777;47.156;8.326;2022-09-17T03:16:37;2.40;;;1.38;;
1567;SDS011;777;47.156;8.326;2022-09-17T03:19:24;2.80;;;1.30;;
1567;SDS011;777;47.156;8.326;2022-09-17T03:21:52;3.05;;;1.30;;
1567;SDS011;777;47.156;8.326;2022-09-17T03:24:19;2.33;;;1.38;;
1567;SDS011;777;47.156;8.326;2022-09-17T03:26:46;3.17;;;1.08;;
1567;SDS011;777;47.156;8.326;2022-09-17T03:29:13;3.65;;;1.08;;
1567;SDS011;777;47.156;8.326;2022-09-17T03:31:42;2.20;;;1.23;;
1567;SDS011;777;47.156;8.326;2022-09-17T03:34:09;1.75;;;0.80;;
1567;SDS011;777;47.156;8.326;2022-09-17T03:36:37;2.63;;;1.08;;
1567;SDS011;777;47.156;8.326;2022-09-17T03:39:04;1.40;;;1.00;;
1567;SDS011;777;47.156;8.326;2022-09-17T03:41:32;1.98;;;0.90;;
1567;SDS011;777;47.156;8.326;2022-09-17T03:43:59;3.85;;;1.27;;
1567;SDS011;777;47.156;8.326;2022-09-17T03:46:26;1.80;;;0.85;;
1567;SDS011;777;47.156;8.326;2022-09-17T03:48:53;1.73;;;0.80;;
1567;SDS011;777;47.156;8.326;2022-09-17T03:51:20;2.53;;;0.68;;
1567;SDS011;777;47.156;8.326;2022-09-17T03:53:49;2.80;;;0.70;;
1567;SDS011;777;47.156;8.326;2022-09-17T03:56:16;1.02;;;0.60;;
1567;SDS011;777;47.156;8.326;2022-09-17T03:58:43;1.10;;;0.60;;
1567;SDS011;777;47.156;8.326;2022-09-17T04:01:10;1.85;;;0.60;;
1567;SDS011;777;47.156;8.326;2022-09-17T04:03:37;2.45;;;0.70;;
1567;SDS011;777;47.156;8.326;2022-09-17T04:06:04;0.90;;;0.50;;
1567;SDS011;777;47.156;8.326;2022-09-17T04:08:31;1.30;;;0.50;;
1567;SDS011;777;47.156;8.326;2022-09-17T04:11:02;0.93;;;0.43;;
1567;SDS011;777;47.156;8.326;2022-09-17T04:13:29;1.40;;;0.60;;
1567;SDS011;777;47.156;8.326;2022-09-17T04:15:56;1.55;;;0.50;;
1567;SDS011;777;47.156;8.326;2022-09-17T04:18:23;1.00;;;0.50;;
1567;SDS011;777;47.156;8.326;2022-09-17T04:20:50;0.80;;;0.60;;
1567;SDS011;777;47.156;8.326;2022-09-17T04:23:17;0.95;;;0.47;;
1567;SDS011;777;47.156;8.326;2022-09-17T04:25:45;1.10;;;0.52;;
1567;SDS011;777;47.156;8.326;2022-09-17T04:28:13;2.38;;;0.70;;
1567;SDS011;777;47.156;8.326;2022-09-17T04:30:41;1.55;;;0.50;;
1567;SDS011;777;47.156;8.326;2022-09-17T04:33:26;1.42;;;0.55;;
1567;SDS011;777;47.156;8.326;2022-09-17T04:35:53;3.55;;;0.80;;
1567;SDS011;777;47.156;8.326;2022-09-17T04:38:20;2.05;;;0.52;;
1567;SDS011;777;47.156;8.326;2022-09-17T04:40:47;1.52;;;0.55;;
1567;SDS011;777;47.156;8.326;2022-09-17T04:43:17;1.20;;;0.50;;
1567;SDS011;777;47.156;8.326;2022-09-17T04:45:44;1.17;;;0.55;;
1567;SDS011;777;47.156;8.326;2022-09-17T04:48:11;2.03;;;0.70;;
1567;SDS011;777;47.156;8.326;2022-09-17T04:50:38;1.92;;;0.70;;
1567;SDS011;777;47.156;8.326;2022-09-17T04:53:06;1.45;;;0.70;;
1567;SDS011;777;47.156;8.326;2022-09-17T04:55:33;2.50;;;0.73;;
1567;SDS011;777;47.156;8.326;2022-09-17T04:58:00;1.88;;;0.63;;
1567;SDS011;777;47.156;8.326;2022-09-17T05:00:28;3.72;;;0.60;;
1567;SDS011;777;47.156;8.326;2022-09-17T05:02:55;1.85;;;0.85;;
1567;SDS011;777;47.156;8.326;2022-09-17T05:05:23;1.27;;;0.63;;
1567;SDS011;777;47.156;8.326;2022-09-17T05:07:50;1.58;;;0.70;;
1567;SDS011;777;47.156;8.326;2022-09-17T05:10:18;2.17;;;0.90;;
1567;SDS011;777;47.156;8.326;2022-09-17T05:12:47;1.73;;;0.60;;
1567;SDS011;777;47.156;8.326;2022-09-17T05:15:15;2.10;;;0.70;;
1567;SDS011;777;47.156;8.326;2022-09-17T05:17:44;3.33;;;0.90;;
1567;SDS011;777;47.156;8.326;2022-09-17T05:20:11;1.67;;;0.80;;
1567;SDS011;777;47.156;8.326;2022-09-17T05:22:40;1.88;;;0.70;;
1567;SDS011;777;47.156;8.326;2022-09-17T05:25:07;1.33;;;0.90;;
1567;SDS011;777;47.156;8.326;2022-09-17T05:27:35;2.33;;;0.80;;
1567;SDS011;777;47.156;8.326;2022-09-17T05:30:03;3.35;;;0.98;;
1567;SDS011;777;47.156;8.326;2022-09-17T05:32:32;3.72;;;0.95;;
1567;SDS011;777;47.156;8.326;2022-09-17T05:35:01;1.95;;;1.17;;
1567;SDS011;777;47.156;8.326;2022-09-17T05:37:28;1.80;;;1.25;;
1567;SDS011;777;47.156;8.326;2022-09-17T05:39:56;3.35;;;0.90;;
1567;SDS011;777;47.156;8.326;2022-09-17T05:42:23;1.30;;;0.90;;
1567;SDS011;777;47.156;8.326;2022-09-17T05:44:50;1.42;;;0.70;;
1567;SDS011;777;47.156;8.326;2022-09-17T05:47:36;2.20;;;0.70;;
1567;SDS011;777;47.156;8.326;2022-09-17T05:50:04;1.52;;;0.80;;
1567;SDS011;777;47.156;8.326;2022-09-17T05:52:32;2.10;;;0.73;;
1567;SDS011;777;47.156;8.326;2022-09-17T05:54:59;2.72;;;0.80;;
1567;SDS011;777;47.156;8.326;2022-09-17T05:57:27;4.00;;;0.98;;
1567;SDS011;777;47.156;8.326;2022-09-17T05:59:55;1.80;;;0.88;;
1567;SDS011;777;47.156;8.326;2022-09-17T06:02:22;2.10;;;0.80;;
1567;SDS011;777;47.156;8.326;2022-09-17T06:04:49;2.35;;;0.70;;
1567;SDS011;777;47.156;8.326;2022-09-17T06:07:18;3.17;;;0.90;;
1567;SDS011;777;47.156;8.326;2022-09-17T06:09:45;2.28;;;1.13;;
1567;SDS011;777;47.156;8.326;2022-09-17T06:12:12;2.40;;;0.80;;
1567;SDS011;777;47.156;8.326;2022-09-17T06:14:39;1.50;;;0.80;;
1567;SDS011;777;47.156;8.326;2022-09-17T06:17:06;3.00;;;0.85;;
1567;SDS011;777;47.156;8.326;2022-09-17T06:19:34;1.95;;;0.80;;
1567;SDS011;777;47.156;8.326;2022-09-17T06:22:01;3.20;;;0.88;;
1567;SDS011;777;47.156;8.326;2022-09-17T06:24:31;2.30;;;0.82;;
1567;SDS011;777;47.156;8.326;2022-09-17T06:26:58;2.33;;;0.82;;
1567;SDS011;777;47.156;8.326;2022-09-17T06:29:25;2.78;;;0.70;;
1567;SDS011;777;47.156;8.326;2022-09-17T06:31:52;2.58;;;0.90;;
1567;SDS011;777;47.156;8.326;2022-09-17T06:34:19;2.28;;;0.88;;
1567;SDS011;777;47.156;8.326;2022-09-17T06:36:47;2.78;;;1.23;;
1567;SDS011;777;47.156;8.326;2022-09-17T06:39:14;4.90;;;1.67;;
1567;SDS011;777;47.156;8.326;2022-09-17T06:41:43;1.20;;;0.50;;
1567;SDS011;777;47.156;8.326;2022-09-17T06:44:10;3.90;;;1.15;;
1567;SDS011;777;47.156;8.326;2022-09-17T06:46:37;3.20;;;0.85;;
1567;SDS011;777;47.156;8.326;2022-09-17T06:49:04;1.98;;;0.90;;
1567;SDS011;777;47.156;8.326;2022-09-17T06:51:31;2.15;;;0.90;;
1567;SDS011;777;47.156;8.326;2022-09-17T06:53:59;3.83;;;0.90;;
1567;SDS011;777;47.156;8.326;2022-09-17T06:56:47;3.00;;;1.30;;
1567;SDS011;777;47.156;8.326;2022-09-17T06:59:14;2.35;;;1.02;;
1567;SDS011;777;47.156;8.326;2022-09-17T07:01:42;4.03;;;0.95;;
1567;SDS011;777;47.156;8.326;2022-09-17T07:04:09;3.85;;;1.08;;
1567;SDS011;777;47.156;8.326;2022-09-17T07:06:36;1.40;;;0.80;;
1567;SDS011;777;47.156;8.326;2022-09-17T07:09:03;4.68;;;1.73;;
1567;SDS011;777;47.156;8.326;2022-09-17T07:11:31;2.38;;;0.82;;
1567;SDS011;777;47.156;8.326;2022-09-17T07:14:00;4.68;;;1.30;;
1567;SDS011;777;47.156;8.326;2022-09-17T07:16:28;2.78;;;1.17;;
1567;SDS011;777;47.156;8.326;2022-09-17T07:18:59;2.67;;;1.15;;
1567;SDS011;777;47.156;8.326;2022-09-17T07:21:26;3.55;;;1.00;;
1567;SDS011;777;47.156;8.326;2022-09-17T07:23:53;2.90;;;0.80;;
1567;SDS011;777;47.156;8.326;2022-09-17T07:26:21;1.90;;;0.70;;
1567;SDS011;777;47.156;8.326;2022-09-17T07:28:48;3.75;;;1.10;;
1567;SDS011;777;47.156;8.326;2022-09-17T07:31:16;2.80;;;0.68;;
1567;SDS011;777;47.156;8.326;2022-09-17T07:33:43;3.22;;;0.98;;
1567;SDS011;777;47.156;8.326;2022-09-17T07:36:12;1.75;;;0.75;;
1567;SDS011;777;47.156;8.326;2022-09-17T07:38:42;2.47;;;0.80;;
1567;SDS011;777;47.156;8.326;2022-09-17T07:41:10;4.10;;;0.60;;
1567;SDS011;777;47.156;8.326;2022-09-17T07:43:38;3.33;;;0.80;;
1567;SDS011;777;47.156;8.326;2022-09-17T07:46:07;3.28;;;0.90;;
1567;SDS011;777;47.156;8.326;2022-09-17T07:48:40;1.63;;;0.70;;
1567;SDS011;777;47.156;8.326;2022-09-17T07:51:08;3.10;;;0.77;;
1567;SDS011;777;47.156;8.326;2022-09-17T07:53:40;3.30;;;0.98;;
1567;SDS011;777;47.156;8.326;2022-09-17T07:56:07;2.67;;;0.60;;
1567;SDS011;777;47.156;8.326;2022-09-17T07:58:35;2.97;;;0.82;;
1567;SDS011;777;47.156;8.326;2022-09-17T08:01:02;1.55;;;0.60;;
1567;SDS011;777;47.156;8.326;2022-09-17T08:03:51;2.80;;;0.93;;
1567;SDS011;777;47.156;8.326;2022-09-17T08:06:20;2.13;;;0.90;;
1567;SDS011;777;47.156;8.326;2022-09-17T08:08:50;2.85;;;0.90;;
1567;SDS011;777;47.156;8.326;2022-09-17T08:11:18;2.70;;;0.75;;
1567;SDS011;777;47.156;8.326;2022-09-17T08:13:46;3.20;;;1.30;;
1567;SDS011;777;47.156;8.326;2022-09-17T08:16:14;3.95;;;0.88;;
1567;SDS011;777;47.156;8.326;2022-09-17T08:18:42;2.28;;;0.90;;
1567;SDS011;777;47.156;8.326;2022-09-17T08:21:12;2.03;;;0.68;;
1567;SDS011;777;47.156;8.326;2022-09-17T08:23:41;3.05;;;0.68;;
1567;SDS011;777;47.156;8.326;2022-09-17T08:26:10;2.38;;;0.88;;
1567;SDS011;777;47.156;8.326;2022-09-17T08:28:39;1.27;;;0.68;;
1567;SDS011;777;47.156;8.326;2022-09-17T08:31:12;2.17;;;0.82;;
1567;SDS011;777;47.156;8.326;2022-09-17T08:33:40;2.88;;;0.85;;
1567;SDS011;777;47.156;8.326;2022-09-17T08:36:09;2.78;;;0.65;;
1567;SDS011;777;47.156;8.326;2022-09-17T08:38:39;3.63;;;0.98;;
1567;SDS011;777;47.156;8.326;2022-09-17T08:41:11;2.88;;;0.80;;
1567;SDS011;777;47.156;8.326;2022-09-17T08:43:49;2.90;;;0.55;;
1567;SDS011;777;47.156;8.326;2022-09-17T08:46:23;1.60;;;0.38;;
1567;SDS011;777;47.156;8.326;2022-09-17T08:48:51;2.30;;;0.50;;
1567;SDS011;777;47.156;8.326;2022-09-17T08:51:30;1.48;;;0.50;;
1567;SDS011;777;47.156;8.326;2022-09-17T08:54:09;2.33;;;0.63;;
1567;SDS011;777;47.156;8.326;2022-09-17T08:56:44;1.10;;;0.50;;
1567;SDS011;777;47.156;8.326;2022-09-17T08:59:35;1.52;;;0.38;;
1567;SDS011;777;47.156;8.326;2022-09-17T09:02:12;2.35;;;0.70;;
1567;SDS011;777;47.156;8.326;2022-09-17T09:04:55;1.10;;;0.50;;
1567;SDS011;777;47.156;8.326;2022-09-17T09:07:29;2.53;;;0.43;;
1567;SDS011;777;47.156;8.326;2022-09-17T09:10:04;2.28;;;0.77;;
1567;SDS011;777;47.156;8.326;2022-09-17T09:12:37;1.98;;;0.70;;
1567;SDS011;777;47.156;8.326;2022-09-17T09:15:07;2.00;;;0.60;;
1567;SDS011;777;47.156;8.326;2022-09-17T09:17:46;1.65;;;0.50;;
1567;SDS011;777;47.156;8.326;2022-09-17T09:20:16;0.70;;;0.40;;
1567;SDS011;777;47.156;8.326;2022-09-17T09:22:47;3.25;;;0.60;;
1567;SDS011;777;47.156;8.326;2022-09-17T09:25:20;0.98;;;0.50;;
1567;SDS011;777;47.156;8.326;2022-09-17T09:27:55;0.77;;;0.40;;
1567;SDS011;777;47.156;8.326;2022-09-17T09:30:42;1.55;;;0.47;;
1567;SDS011;777;47.156;8.326;2022-09-17T09:33:18;0.60;;;0.28;;
1567;SDS011;777;47.156;8.326;2022-09-17T09:35:51;0.73;;;0.20;;
1567;SDS011;777;47.156;8.326;2022-09-17T09:38:21;2.40;;;0.32;;
1567;SDS011;777;47.156;8.326;2022-09-17T09:40:55;0.73;;;0.20;;
1567;SDS011;777;47.156;8.326;2022-09-17T09:43:30;3.07;;;0.63;;
1567;SDS011;777;47.156;8.326;2022-09-17T09:46:30;0.93;;;0.30;;
1567;SDS011;777;47.156;8.326;2022-09-17T09:49:33;1.65;;;0.40;;
1567;SDS011;777;47.156;8.326;2022-09-17T09:52:33;1.65;;;0.40;;
1567;SDS011;777;47.156;8.326;2022-09-17T09:55:13;1.13;;;0.40;;
1567;SDS011;777;47.156;8.326;2022-09-17T09:58:10;0.95;;;0.30;;
1567;SDS011;777;47.156;8.326;2022-09-17T10:00:46;2.08;;;0.50;;
1567;SDS011;777;47.156;8.326;2022-09-17T10:03:15;2.45;;;0.30;;
1567;SDS011;777;47.156;8.326;2022-09-17T10:05:51;2.65;;;0.60;;
1567;SDS011;777;47.156;8.326;2022-09-17T10:08:19;2.15;;;0.40;;
1567;SDS011;777;47.156;8.326;2022-09-17T10:10:58;1.35;;;0.55;;
1567;SDS011;777;47.156;8.326;2022-09-17T10:13:27;1.48;;;0.43;;
1567;SDS011;777;47.156;8.326;2022-09-17T10:15:56;2.63;;;0.40;;
1567;SDS011;777;47.156;8.326;2022-09-17T10:18:42;0.60;;;0.50;;
1567;SDS011;777;47.156;8.326;2022-09-17T10:21:17;4.50;;;0.47;;
1567;SDS011;777;47.156;8.326;2022-09-17T10:23:45;2.00;;;0.40;;
1567;SDS011;777;47.156;8.326;2022-09-17T10:26:20;1.48;;;0.40;;
1567;SDS011;777;47.156;8.326;2022-09-17T10:28:50;1.77;;;0.50;;
1567;SDS011;777;47.156;8.326;2022-09-17T10:31:19;1.40;;;0.50;;
1567;SDS011;777;47.156;8.326;2022-09-17T10:33:50;1.35;;;0.38;;
1567;SDS011;777;47.156;8.326;2022-09-17T10:36:37;1.10;;;0.50;;
1567;SDS011;777;47.156;8.326;2022-09-17T10:41:58;1.52;;;0.40;;
1567;SDS011;777;47.156;8.326;2022-09-17T10:44:27;3.28;;;0.50;;
1567;SDS011;777;47.156;8.326;2022-09-17T10:47:00;5.15;;;0.40;;
1567;SDS011;777;47.156;8.326;2022-09-17T10:49:37;2.58;;;0.40;;
1567;SDS011;777;47.156;8.326;2022-09-17T10:52:07;1.10;;;0.47;;
1567;SDS011;777;47.156;8.326;2022-09-17T10:57:52;2.08;;;0.40;;
1567;SDS011;777;47.156;8.326;2022-09-17T11:00:29;1.42;;;0.47;;
1567;SDS011;777;47.156;8.326;2022-09-17T11:06:16;2.83;;;0.47;;
1567;SDS011;777;47.156;8.326;2022-09-17T11:09:06;2.05;;;0.50;;
1567;SDS011;777;47.156;8.326;2022-09-17T11:11:49;1.48;;;0.40;;
1567;SDS011;777;47.156;8.326;2022-09-17T11:14:32;1.67;;;0.50;;
1567;SDS011;777;47.156;8.326;2022-09-17T11:17:21;1.17;;;0.30;;
1567;SDS011;777;47.156;8.326;2022-09-17T11:20:02;1.27;;;0.40;;
1567;SDS011;777;47.156;8.326;2022-09-17T11:23:07;0.50;;;0.20;;
1567;SDS011;777;47.156;8.326;2022-09-17T11:25:49;0.65;;;0.20;;
1567;SDS011;777;47.156;8.326;2022-09-17T11:28:27;1.15;;;0.40;;
1567;SDS011;777;47.156;8.326;2022-09-17T11:31:09;1.17;;;0.30;;
1567;SDS011;777;47.156;8.326;2022-09-17T11:36:44;2.05;;;0.40;;
1567;SDS011;777;47.156;8.326;2022-09-17T11:39:15;1.10;;;0.30;;
1567;SDS011;777;47.156;8.326;2022-09-17T11:41:45;2.20;;;0.50;;
1567;SDS011;777;47.156;8.326;2022-09-17T11:44:19;0.90;;;0.40;;
1567;SDS011;777;47.156;8.326;2022-09-17T11:49:23;1.38;;;0.47;;
1567;SDS011;777;47.156;8.326;2022-09-17T11:51:58;1.08;;;0.35;;
1567;SDS011;777;47.156;8.326;2022-09-17T11:54:30;0.80;;;0.30;;
1567;SDS011;777;47.156;8.326;2022-09-17T11:59:34;0.93;;;0.20;;
1567;SDS011;777;47.156;8.326;2022-09-17T12:02:12;2.20;;;0.30;;
1567;SDS011;777;47.156;8.326;2022-09-17T12:04:46;0.95;;;0.30;;
1567;SDS011;777;47.156;8.326;2022-09-17T12:07:23;0.93;;;0.30;;
1567;SDS011;777;47.156;8.326;2022-09-17T12:09:58;1.95;;;0.30;;
1567;SDS011;777;47.156;8.326;2022-09-17T12:12:32;0.80;;;0.30;;
1567;SDS011;777;47.156;8.326;2022-09-17T12:15:05;3.13;;;0.50;;
1567;SDS011;777;47.156;8.326;2022-09-17T12:17:42;1.17;;;0.30;;
1567;SDS011;777;47.156;8.326;2022-09-17T12:20:16;0.95;;;0.30;;
1567;SDS011;777;47.156;8.326;2022-09-17T12:22:50;2.17;;;0.50;;
1567;SDS011;777;47.156;8.326;2022-09-17T12:25:19;1.08;;;0.38;;
1567;SDS011;777;47.156;8.326;2022-09-17T12:27:48;1.15;;;0.40;;
1567;SDS011;777;47.156;8.326;2022-09-17T12:30:21;3.65;;;0.60;;
1567;SDS011;777;47.156;8.326;2022-09-17T12:35:53;0.95;;;0.40;;
1567;SDS011;777;47.156;8.326;2022-09-17T12:41:18;1.50;;;0.40;;
1567;SDS011;777;47.156;8.326;2022-09-17T12:43:55;1.02;;;0.40;;
1567;SDS011;777;47.156;8.326;2022-09-17T12:46:41;1.98;;;0.43;;
1567;SDS011;777;47.156;8.326;2022-09-17T12:49:28;3.63;;;0.57;;
1567;SDS011;777;47.156;8.326;2022-09-17T12:52:05;1.85;;;0.30;;
1567;SDS011;777;47.156;8.326;2022-09-17T12:54:42;2.13;;;0.40;;
1567;SDS011;777;47.156;8.326;2022-09-17T12:57:23;1.23;;;0.40;;
1567;SDS011;777;47.156;8.326;2022-09-17T12:59:59;1.40;;;0.60;;
1567;SDS011;777;47.156;8.326;2022-09-17T13:02:31;2.08;;;0.40;;
1567;SDS011;777;47.156;8.326;2022-09-17T13:05:14;1.95;;;0.30;;
1567;SDS011;777;47.156;8.326;2022-09-17T13:08:08;4.03;;;2.70;;
1567;SDS011;777;47.156;8.326;2022-09-17T13:13:42;2.88;;;0.40;;
1567;SDS011;777;47.156;8.326;2022-09-17T13:16:16;1.98;;;0.40;;
1567;SDS011;777;47.156;8.326;2022-09-17T13:18:50;1.50;;;0.47;;
1567;SDS011;777;47.156;8.326;2022-09-17T13:21:28;3.17;;;0.50;;
1567;SDS011;777;47.156;8.326;2022-09-17T13:24:19;2.60;;;0.40;;
1567;SDS011;777;47.156;8.326;2022-09-17T13:26:49;1.55;;;0.40;;
1567;SDS011;777;47.156;8.326;2022-09-17T13:32:45;1.85;;;0.50;;
1567;SDS011;777;47.156;8.326;2022-09-17T13:38:18;1.63;;;0.50;;
1567;SDS011;777;47.156;8.326;2022-09-17T13:40:47;1.63;;;0.50;;
1567;SDS011;777;47.156;8.326;2022-09-17T13:43:16;2.17;;;0.75;;
1567;SDS011;777;47.156;8.326;2022-09-17T13:48:36;2.67;;;0.50;;
1567;SDS011;777;47.156;8.326;2022-09-17T13:54:10;3.00;;;0.70;;
1567;SDS011;777;47.156;8.326;2022-09-17T13:56:37;2.00;;;0.47;;
1567;SDS011;777;47.156;8.326;2022-09-17T13:59:08;1.75;;;0.30;;
1567;SDS011;777;47.156;8.326;2022-09-17T14:04:31;2.50;;;0.50;;
1567;SDS011;777;47.156;8.326;2022-09-17T14:07:31;2.65;;;0.70;;
1567;SDS011;777;47.156;8.326;2022-09-17T14:10:01;1.33;;;0.32;;
1567;SDS011;777;47.156;8.326;2022-09-17T14:16:31;1.65;;;0.40;;
1567;SDS011;777;47.156;8.326;2022-09-17T14:19:16;1.95;;;0.47;;
1567;SDS011;777;47.156;8.326;2022-09-17T14:21:57;1.88;;;0.40;;
1567;SDS011;777;47.156;8.326;2022-09-17T14:24:28;1.08;;;0.20;;
1567;SDS011;777;47.156;8.326;2022-09-17T14:27:16;0.75;;;0.32;;
1567;SDS011;777;47.156;8.326;2022-09-17T14:30:03;0.40;;;0.22;;
1567;SDS011;777;47.156;8.326;2022-09-17T14:32:41;0.40;;;0.17;;
1567;SDS011;777;47.156;8.326;2022-09-17T14:35:14;0.40;;;0.20;;
1567;SDS011;777;47.156;8.326;2022-09-17T14:37:46;2.08;;;0.40;;
1567;SDS011;777;47.156;8.326;2022-09-17T14:40:18;1.02;;;0.20;;
1567;SDS011;777;47.156;8.326;2022-09-17T14:42:49;1.15;;;0.35;;
1567;SDS011;777;47.156;8.326;2022-09-17T14:45:21;1.90;;;0.32;;
1567;SDS011;777;47.156;8.326;2022-09-17T14:51:21;2.03;;;0.55;;
1567;SDS011;777;47.156;8.326;2022-09-17T14:54:05;2.10;;;0.40;;
1567;SDS011;777;47.156;8.326;2022-09-17T14:56:39;3.08;;;0.88;;
1567;SDS011;777;47.156;8.326;2022-09-17T14:59:17;1.08;;;0.40;;
1567;SDS011;777;47.156;8.326;2022-09-17T15:02:17;1.00;;;0.47;;
1567;SDS011;777;47.156;8.326;2022-09-17T15:04:53;1.55;;;0.40;;
1567;SDS011;777;47.156;8.326;2022-09-17T15:07:20;2.10;;;0.50;;
1567;SDS011;777;47.156;8.326;2022-09-17T15:09:48;1.48;;;0.50;;
1567;SDS011;777;47.156;8.326;2022-09-17T15:12:38;1.98;;;0.57;;
1567;SDS011;777;47.156;8.326;2022-09-17T15:15:10;1.73;;;0.50;;
1567;SDS011;777;47.156;8.326;2022-09-17T15:17:46;1.40;;;0.35;;
1567;SDS011;777;47.156;8.326;2022-09-17T15:20:16;0.65;;;0.30;;
1567;SDS011;777;47.156;8.326;2022-09-17T15:22:46;1.38;;;0.52;;
1567;SDS011;777;47.156;8.326;2022-09-17T15:25:18;0.85;;;0.40;;
1567;SDS011;777;47.156;8.326;2022-09-17T15:27:48;1.23;;;0.50;;
1567;SDS011;777;47.156;8.326;2022-09-17T15:30:21;3.13;;;0.47;;
1567;SDS011;777;47.156;8.326;2022-09-17T15:32:49;2.10;;;0.50;;
1567;SDS011;777;47.156;8.326;2022-09-17T15:35:19;2.25;;;0.47;;
1567;SDS011;777;47.156;8.326;2022-09-17T15:38:20;2.05;;;0.60;;
1567;SDS011;777;47.156;8.326;2022-09-17T15:40:51;2.88;;;0.75;;
1567;SDS011;777;47.156;8.326;2022-09-17T15:43:20;3.00;;;0.85;;
1567;SDS011;777;47.156;8.326;2022-09-17T15:45:52;1.63;;;0.70;;
1567;SDS011;777;47.156;8.326;2022-09-17T15:48:21;2.97;;;0.85;;
1567;SDS011;777;47.156;8.326;2022-09-17T15:50:59;1.90;;;0.85;;
1567;SDS011;777;47.156;8.326;2022-09-17T15:53:28;2.05;;;0.63;;
1567;SDS011;777;47.156;8.326;2022-09-17T15:58:50;0.85;;;0.30;;
1567;SDS011;777;47.156;8.326;2022-09-17T16:04:22;1.13;;;0.60;;
1567;SDS011;777;47.156;8.326;2022-09-17T16:09:55;0.93;;;0.40;;
1567;SDS011;777;47.156;8.326;2022-09-17T16:12:24;1.58;;;0.50;;
1567;SDS011;777;47.156;8.326;2022-09-17T16:14:53;1.90;;;0.70;;
1567;SDS011;777;47.156;8.326;2022-09-17T16:17:26;3.40;;;0.50;;
1567;SDS011;777;47.156;8.326;2022-09-17T16:19:58;2.75;;;0.77;;
1567;SDS011;777;47.156;8.326;2022-09-17T16:22:30;2.40;;;0.50;;
1567;SDS011;777;47.156;8.326;2022-09-17T16:24:57;1.23;;;0.50;;
1567;SDS011;777;47.156;8.326;2022-09-17T16:27:25;1.80;;;0.80;;
1567;SDS011;777;47.156;8.326;2022-09-17T16:29:56;2.30;;;0.93;;
1567;SDS011;777;47.156;8.326;2022-09-17T16:32:29;4.78;;;0.90;;
1567;SDS011;777;47.156;8.326;2022-09-17T16:34:57;3.95;;;1.40;;
1567;SDS011;777;47.156;8.326;2022-09-17T16:37:46;3.38;;;1.67;;
1567;SDS011;777;47.156;8.326;2022-09-17T16:40:14;3.58;;;1.10;;
1567;SDS011;777;47.156;8.326;2022-09-17T16:42:41;2.67;;;1.10;;
1567;SDS011;777;47.156;8.326;2022-09-17T16:45:08;2.92;;;1.08;;
1567;SDS011;777;47.156;8.326;2022-09-17T16:47:36;2.22;;;0.90;;
1567;SDS011;777;47.156;8.326;2022-09-17T16:50:06;1.38;;;0.60;;
1567;SDS011;777;47.156;8.326;2022-09-17T16:52:35;2.95;;;0.82;;
1567;SDS011;777;47.156;8.326;2022-09-17T16:55:03;1.38;;;0.50;;
1567;SDS011;777;47.156;8.326;2022-09-17T16:57:31;1.13;;;0.45;;
1567;SDS011;777;47.156;8.326;2022-09-17T16:59:58;1.63;;;0.57;;
1567;SDS011;777;47.156;8.326;2022-09-17T17:02:26;1.75;;;0.70;;
1567;SDS011;777;47.156;8.326;2022-09-17T17:04:53;2.42;;;0.68;;
1567;SDS011;777;47.156;8.326;2022-09-17T17:07:21;5.70;;;0.60;;
1567;SDS011;777;47.156;8.326;2022-09-17T17:09:49;1.83;;;0.73;;
1567;SDS011;777;47.156;8.326;2022-09-17T17:12:16;2.95;;;0.82;;